.
WxDataArchive / Data Records for 2008-05-12
2008-05-11 May 2008 2008-05-13

Data Records for Monday, 12 May 2008

Time	Temp	Chill	HIndex	Humid	Dewpt	 Wind 	HiWind	WindDir	Rain 	Barom 
-----	----	-----	------	-----	-----	------	------	-------	-----	----- 
00:00	50.1	50.1	50.1	80	44.2	2	4	270	0.00	29.600 
00:05	50.1	50.1	50.1	81	44.5	1	2	292	0.00	29.605 
00:10	50.1	50.1	50.1	80	44.2	2	4	270	0.00	29.607 
00:15	49.9	49.9	49.9	80	44.0	1	3	315	0.00	29.608 
00:20	49.9	49.9	49.9	81	44.3	1	4	315	0.00	29.608 
00:25	49.8	49.8	49.8	81	44.2	1	3	270	0.00	29.609 
00:30	49.8	49.8	49.8	81	44.2	1	3	292	0.00	29.614 
00:35	49.6	49.6	49.6	82	44.3	1	5	270	0.00	29.615 
00:40	49.6	49.6	49.6	82	44.3	1	4	270	0.00	29.614 
00:45	49.6	49.6	49.6	82	44.3	1	4	270	0.00	29.612 
00:50	49.5	49.5	49.5	83	44.6	1	4	270	0.00	29.613 
00:55	49.5	49.5	49.5	83	44.6	1	4	270	0.00	29.615 
01:00	49.4	49.4	49.4	83	44.5	0	3	292	0.00	29.622 
01:05	49.4	49.4	49.4	84	44.8	1	3	315	0.00	29.624 
01:10	49.4	49.4	49.4	84	44.8	1	4	292	0.00	29.624 
01:15	49.4	49.4	49.4	84	44.8	1	3	0	0.00	29.625 
01:20	49.2	49.2	49.2	84	44.6	1	3	0	0.00	29.626 
01:25	49.1	49.1	49.1	84	44.5	1	4	248	0.00	29.628 
01:30	48.9	48.9	48.9	84	44.3	1	3	315	0.00	29.631 
01:35	48.6	48.6	48.6	84	44.0	1	3	292	0.00	29.633 
01:40	48.5	48.5	48.5	85	44.2	1	3	315	0.00	29.633 
01:45	48.2	48.2	48.2	85	43.9	1	3	315	0.00	29.636 
01:50	48.0	48.0	48.0	86	44.0	0	3	315	0.00	29.639 
01:55	47.7	47.7	47.7	86	43.7	0	2	315	0.00	29.641 
02:00	47.7	47.7	47.7	87	44.0	0	3	292	0.00	29.643 
02:05	47.4	47.4	47.4	87	43.7	0	1	292	0.00	29.644 
02:10	47.3	47.3	47.3	87	43.6	1	3	315	0.00	29.649 
02:15	47.3	47.3	47.3	87	43.6	1	2	315	0.00	29.654 
02:20	47.1	47.1	47.1	87	43.4	1	3	315	0.00	29.655 
02:25	46.8	46.8	46.8	88	43.4	1	2	315	0.00	29.658 
02:30	46.7	46.7	46.7	88	43.3	1	3	315	0.00	29.658 
02:35	46.5	46.5	46.5	88	43.1	1	3	270	0.00	29.659 
02:40	46.5	46.5	46.5	88	43.1	1	3	270	0.00	29.660 
02:45	46.4	46.4	46.4	88	43.0	1	3	292	0.00	29.662 
02:50	46.4	46.4	46.4	88	43.0	1	3	270	0.00	29.668 
02:55	46.2	46.2	46.2	88	42.8	0	2	248	0.00	29.669 
03:00	46.2	46.2	46.2	88	42.8	1	4	248	0.00	29.672 
03:05	46.2	46.2	46.2	88	42.8	1	2	248	0.00	29.673 
03:10	46.2	46.2	46.2	88	42.8	1	2	248	0.00	29.672 
03:15	46.2	46.2	46.2	88	42.8	1	6	270	0.00	29.674 
03:20	46.2	46.2	46.2	88	42.8	1	7	270	0.00	29.677 
03:25	46.2	46.2	46.2	88	42.8	0	2	292	0.00	29.683 
03:30	46.2	46.2	46.2	88	42.8	1	3	248	0.00	29.687 
03:35	46.2	46.2	46.2	88	42.8	2	3	248	0.00	29.688 
03:40	46.2	46.2	46.2	88	42.8	1	3	248	0.00	29.690 
03:45	46.2	46.2	46.2	88	42.8	1	4	270	0.00	29.691 
03:50	46.2	46.2	46.2	88	42.8	1	4	270	0.00	29.692 
03:55	46.1	46.1	46.1	88	42.7	1	3	270	0.00	29.694 
04:00	46.0	46.0	46.0	88	42.6	2	7	270	0.00	29.697 
04:05	45.8	45.8	45.8	87	42.2	1	4	315	0.00	29.704 
04:10	45.7	45.7	45.7	88	42.4	1	4	338	0.00	29.706 
04:15	45.5	45.5	45.5	88	42.2	1	3	248	0.00	29.706 
04:20	45.2	45.2	45.2	88	41.9	2	4	248	0.00	29.708 
04:25	44.9	44.9	44.9	88	41.6	1	3	292	0.00	29.714 
04:30	44.8	44.8	44.8	88	41.5	1	3	315	0.00	29.720 
04:35	44.6	44.6	44.6	88	41.3	1	3	315	0.00	29.722 
04:40	44.3	44.3	44.3	89	41.3	1	2	315	0.00	29.724 
04:45	44.3	44.3	44.3	89	41.3	1	3	292	0.00	29.729 
04:50	44.3	44.3	44.3	89	41.3	1	3	292	0.00	29.734 
04:55	44.2	44.2	44.2	89	41.2	1	3	315	0.00	29.740 
05:00	44.2	44.2	44.2	88	40.9	1	3	315	0.00	29.741 
05:05	44.2	44.2	44.2	88	40.9	1	6	292	0.00	29.744 
05:10	44.1	44.1	44.1	88	40.8	1	4	292	0.00	29.747 
05:15	44.1	44.1	44.1	88	40.8	2	6	270	0.00	29.751 
05:20	44.1	44.1	44.1	88	40.8	1	3	292	0.00	29.754 
05:25	44.1	44.1	44.1	88	40.8	2	6	315	0.00	29.754 
05:30	44.1	44.1	44.1	88	40.8	2	7	292	0.00	29.755 
05:35	43.9	43.9	43.9	88	40.6	2	5	292	0.00	29.757 
05:40	43.8	43.8	43.8	88	40.5	2	9	248	0.00	29.760 
05:45	43.9	43.9	43.9	88	40.6	2	5	315	0.00	29.763 
05:50	43.8	43.8	43.8	88	40.5	0	2	270	0.00	29.765 
05:55	43.8	43.8	43.8	88	40.5	1	3	292	0.00	29.770 
06:00	43.8	43.8	43.8	88	40.5	1	3	292	0.00	29.773 
06:05	43.9	43.9	43.9	88	40.6	1	6	292	0.00	29.774 
06:10	44.1	44.1	44.1	88	40.8	1	3	315	0.00	29.774 
06:15	44.1	44.1	44.1	88	40.8	1	2	315	0.00	29.774 
06:20	44.1	44.1	44.1	88	40.8	1	4	315	0.00	29.776 
06:25	44.2	44.2	44.2	88	40.9	1	5	338	0.00	29.779 
06:30	44.3	44.3	44.3	88	41.0	2	4	338	0.00	29.785 
06:35	44.5	44.5	44.5	88	41.2	1	3	315	0.00	29.788 
06:40	44.6	44.6	44.6	87	41.0	1	4	315	0.00	29.790 
06:45	44.6	44.6	44.6	87	41.0	1	3	292	0.00	29.791 
06:50	44.8	44.8	44.8	87	41.2	1	5	292	0.00	29.792 
06:55	44.9	44.9	44.9	86	41.0	1	4	292	0.00	29.795 
07:00	45.1	45.1	45.1	87	41.5	1	4	292	0.00	29.793 
07:05	45.2	45.2	45.2	86	41.3	1	4	270	0.00	29.793 
07:10	45.4	45.4	45.4	86	41.5	1	4	292	0.00	29.797 
07:15	45.7	45.7	45.7	86	41.8	1	3	202	0.00	29.798 
07:20	45.7	45.7	45.7	86	41.8	1	3	202	0.00	29.803 
07:25	45.8	45.8	45.8	86	41.9	1	2	338	0.00	29.809 
07:30	45.7	45.7	45.7	85	41.5	2	4	315	0.00	29.819 
07:35	45.7	45.7	45.7	85	41.5	1	3	338	0.00	29.819 
07:40	45.7	45.7	45.7	85	41.5	0	2	315	0.00	29.810 
07:45	45.7	45.7	45.7	85	41.5	1	3	315	0.00	29.818 
07:50	45.7	45.7	45.7	85	41.5	2	6	315	0.00	29.821 
07:55	45.7	45.7	45.7	85	41.5	1	3	315	0.00	29.820 
08:00	45.7	45.7	45.7	85	41.5	1	4	338	0.00	29.828 
08:05	45.7	45.7	45.7	85	41.5	1	4	338	0.00	29.824 
08:10	45.8	45.8	45.8	85	41.6	1	3	292	0.00	29.827 
08:15	45.8	45.8	45.8	84	41.2	1	4	270	0.00	29.831 
08:20	46.0	46.0	46.0	84	41.4	1	3	270	0.00	29.834 
08:25	46.0	46.0	46.0	84	41.4	2	6	338	0.00	29.835 
08:30	45.7	45.7	45.7	84	41.1	2	4	315	0.00	29.837 
08:35	45.8	45.8	45.8	84	41.2	1	4	270	0.00	29.837 
08:40	46.0	46.0	46.0	84	41.4	1	3	270	0.00	29.835 
08:45	46.0	46.0	46.0	84	41.4	2	5	270	0.00	29.838 
08:50	46.1	46.1	46.1	84	41.5	1	4	292	0.00	29.842 
08:55	46.1	46.1	46.1	83	41.2	2	5	270	0.00	29.845 
09:00	46.1	46.1	46.1	83	41.2	2	7	270	0.00	29.855 
09:05	46.2	46.2	46.2	83	41.3	1	3	270	0.00	29.853 
09:10	46.5	46.5	46.5	83	41.6	1	4	270	0.00	29.859 
09:15	46.7	46.7	46.7	83	41.8	1	3	292	0.00	29.852 
09:20	47.0	47.0	47.0	83	42.1	1	3	0	0.00	29.850 
09:25	46.7	46.7	46.7	82	41.5	1	3	338	0.00	29.852 
09:30	46.5	46.5	46.5	82	41.3	2	4	315	0.00	29.852 
09:35	46.4	46.4	46.4	83	41.5	2	5	315	0.00	29.856 
09:40	46.4	46.4	46.4	82	41.2	2	7	315	0.00	29.859 
09:45	46.5	46.5	46.5	83	41.6	2	4	292	0.00	29.859 
09:50	46.7	46.7	46.7	83	41.8	2	7	315	0.00	29.862 
09:55	47.0	47.0	47.0	82	41.8	1	4	292	0.00	29.864 
10:00	47.0	47.0	47.0	82	41.8	2	5	338	0.00	29.866 
10:05	47.0	47.0	47.0	81	41.5	2	5	248	0.00	29.863 
10:10	47.3	47.3	47.3	81	41.8	1	3	315	0.00	29.866 
10:15	47.6	47.6	47.6	81	42.1	1	3	315	0.00	29.866 
10:20	48.2	48.2	48.2	80	42.3	1	4	292	0.00	29.866 
10:25	48.3	48.3	48.3	78	41.8	2	5	248	0.00	29.867 
10:30	48.2	48.2	48.2	78	41.7	2	5	315	0.00	29.869 
10:35	48.8	48.8	48.8	78	42.2	1	4	315	0.00	29.871 
10:40	50.5	50.5	50.5	78	43.9	1	2	315	0.00	29.866 
10:45	50.8	50.8	50.8	75	43.2	2	5	315	0.00	29.875 
10:50	50.8	50.8	50.8	74	42.8	2	4	292	0.00	29.875 
10:55	50.5	50.5	50.5	76	43.2	2	5	292	0.00	29.876 
11:00	50.7	50.7	50.7	77	43.8	1	6	315	0.00	29.876 
11:05	51.6	51.6	51.6	75	43.9	1	4	270	0.00	29.878 
11:10	52.0	52.0	52.0	74	44.0	2	4	270	0.00	29.874 
11:15	51.4	51.4	51.4	72	42.7	2	5	315	0.00	29.874 
11:20	52.0	52.0	52.0	76	44.7	2	5	270	0.00	29.874 
11:25	52.3	52.3	52.3	72	43.5	2	6	270	0.00	29.873 
11:30	52.8	52.8	52.8	73	44.4	2	5	270	0.00	29.874 
11:35	52.9	52.9	52.9	72	44.1	2	4	315	0.00	29.874 
11:40	53.3	53.3	53.3	72	44.5	2	5	315	0.00	29.871 
11:45	53.5	53.5	53.5	70	44.0	1	3	0	0.00	29.869 
11:50	54.1	54.1	54.1	70	44.5	1	4	292	0.00	29.870 
11:55	54.5	54.5	54.5	72	45.7	2	4	338	0.00	29.869 
12:00	54.8	54.8	54.8	72	45.9	2	4	338	0.00	29.868 
12:05	55.1	55.1	55.1	70	45.5	2	4	338	0.00	29.867 
12:10	55.4	55.4	55.4	69	45.4	2	4	292	0.00	29.869 
12:15	55.9	55.9	55.9	67	45.1	1	4	270	0.00	29.868 
12:20	55.9	55.9	55.9	68	45.5	1	4	270	0.00	29.868 
12:25	56.3	56.3	56.3	67	45.5	1	3	292	0.00	29.864 
12:30	57.2	57.2	57.2	68	46.7	1	3	68	0.00	29.861 
12:35	57.3	57.3	57.3	66	46.0	1	5	338	0.00	29.864 
12:40	57.2	57.2	57.2	64	45.1	1	3	315	0.00	29.867 
12:45	57.5	57.5	57.5	65	45.8	1	3	22	0.00	29.862 
12:50	57.8	57.8	57.8	62	44.9	1	11	292	0.00	29.866 
12:55	58.1	58.1	58.1	63	45.6	1	2	0	0.00	29.868 
13:00	58.4	58.4	58.4	63	45.9	1	3	45	0.00	29.861 
13:05	58.6	58.6	58.6	62	45.6	1	4	45	0.00	29.868 
13:10	58.9	58.9	58.9	62	45.9	1	4	45	0.00	29.866 
13:15	59.6	59.6	59.6	60	45.7	1	4	90	0.00	29.862 
13:20	59.8	59.8	59.8	61	46.3	1	5	90	0.00	29.864 
13:25	59.9	59.9	59.9	58	45.1	1	2	90	0.00	29.868 
13:30	60.1	60.1	60.1	61	46.6	1	5	338	0.00	29.871 
13:35	60.2	60.2	60.2	57	44.9	1	5	22	0.00	29.867 
13:40	60.2	60.2	60.2	58	45.4	1	5	45	0.00	29.869 
13:45	60.9	60.9	60.9	57	45.6	1	2	315	0.00	29.872 
13:50	60.7	60.7	60.7	58	45.8	1	2	315	0.00	29.871 
13:55	60.5	60.5	60.5	59	46.1	1	3	315	0.00	29.872 
14:00	60.7	60.7	60.7	58	45.8	0	2	315	0.00	29.876 
14:05	60.4	60.4	60.4	58	45.6	0	1	315	0.00	29.875 
14:10	59.6	59.6	59.6	58	44.8	1	4	68	0.00	29.882 
14:15	59.8	59.8	59.8	57	44.5	1	3	292	0.00	29.884 
14:20	59.8	59.8	59.8	56	44.1	1	5	90	0.00	29.886 
14:25	59.6	59.6	59.6	57	44.3	1	4	315	0.00	29.883 
14:30	60.1	60.1	60.1	55	43.9	1	3	292	0.00	29.881 
14:35	59.9	59.9	59.9	57	44.6	0	2	292	0.00	29.885 
14:40	60.5	60.5	60.5	57	45.2	1	4	45	0.00	29.883 
14:45	61.6	61.6	61.6	56	45.7	1	3	45	0.00	29.878 
14:50	62.0	62.0	62.0	53	44.7	1	4	45	0.00	29.879 
14:55	62.1	62.1	62.1	55	45.7	1	3	315	0.00	29.881 
15:00	62.6	62.6	62.6	53	45.2	1	2	315	0.00	29.879 
15:05	62.4	62.4	62.4	53	45.0	0	2	0	0.00	29.879 
15:10	61.5	61.5	61.5	50	42.7	1	3	0	0.00	29.882 
15:15	62.0	62.0	62.0	57	46.6	1	4	22	0.00	29.883 
15:20	62.4	62.4	62.4	55	46.0	1	2	45	0.00	29.883 
15:25	63.1	63.1	63.1	50	44.2	1	4	90	0.00	29.885 
15:30	63.4	63.4	63.4	51	45.0	1	3	270	0.00	29.884 
15:35	62.4	62.4	62.4	50	43.5	0	3	270	0.00	29.884 
15:40	61.6	61.6	61.6	54	44.8	0	2	315	0.00	29.883 
15:45	61.6	61.6	61.6	50	42.8	1	4	292	0.00	29.884 
15:50	62.4	62.4	62.4	51	44.0	0	2	270	0.00	29.883 
15:55	63.1	63.1	63.1	51	44.7	0	2	338	0.00	29.885 
16:00	62.6	62.6	62.6	48	42.6	1	5	338	0.00	29.886 
16:05	61.8	61.8	61.8	52	44.0	1	2	338	0.00	29.888 
16:10	62.1	62.1	62.1	50	43.2	1	3	0	0.00	29.888 
16:15	61.5	61.5	61.5	51	43.2	1	3	22	0.00	29.888 
16:20	61.0	61.0	61.0	51	42.7	1	4	45	0.00	29.891 
16:25	61.6	61.6	61.6	53	44.3	0	1	45	0.00	29.889 
16:30	62.4	62.4	62.4	51	44.0	1	3	248	0.00	29.889 
16:35	62.1	62.1	62.1	50	43.2	0	2	45	0.00	29.890 
16:40	61.6	61.6	61.6	53	44.3	0	3	90	0.00	29.891 
16:45	61.6	61.6	61.6	50	42.8	2	5	112	0.00	29.892 
16:50	62.0	62.0	62.0	51	43.7	1	4	68	0.00	29.893 
16:55	61.8	61.8	61.8	49	42.4	0	4	248	0.00	29.896 
17:00	61.5	61.5	61.5	50	42.7	0	2	22	0.00	29.899 
17:05	60.9	60.9	60.9	52	43.2	0	2	22	0.00	29.901 
17:10	60.4	60.4	60.4	53	43.2	0	2	22	0.00	29.906 
17:15	60.2	60.2	60.2	54	43.5	0	1	22	0.00	29.906 
17:20	60.2	60.2	60.2	55	44.0	0	4	135	0.00	29.906 
17:25	60.4	60.4	60.4	53	43.2	0	2	135	0.00	29.907 
17:30	60.2	60.2	60.2	52	42.5	0	1	135	0.00	29.907 
17:35	59.9	59.9	59.9	51	41.7	0	2	135	0.00	29.908 
17:40	59.6	59.6	59.6	51	41.4	0	1	135	0.00	29.910 
17:45	59.6	59.6	59.6	54	42.9	0	1	135	0.00	29.910 
17:50	59.6	59.6	59.6	53	42.4	0	1	135	0.00	29.910 
17:55	59.6	59.6	59.6	53	42.4	0	1	135	0.00	29.913 
18:00	59.8	59.8	59.8	54	43.1	0	1	135	0.00	29.917 
18:05	60.1	60.1	60.1	52	42.4	0	1	135	0.00	29.918 
18:10	60.5	60.5	60.5	53	43.3	0	1	135	0.00	29.921 
18:15	60.5	60.5	60.5	53	43.3	0	1	135	0.00	29.920 
18:20	60.5	60.5	60.5	54	43.8	0	2	135	0.00	29.920 
18:25	60.2	60.2	60.2	54	43.5	0	1	135	0.00	29.922 
18:30	60.1	60.1	60.1	53	42.9	0	1	135	0.00	29.923 
18:35	59.9	59.9	59.9	53	42.7	0	1	135	0.00	29.924 
18:40	59.9	59.9	59.9	54	43.2	0	0	---	0.00	29.926 
18:45	59.9	59.9	59.9	54	43.2	0	0	---	0.00	29.926 
18:50	59.9	59.9	59.9	55	43.7	0	1	135	0.00	29.928 
18:55	59.6	59.6	59.6	54	42.9	0	2	135	0.00	29.931 
19:00	59.5	59.5	59.5	54	42.8	0	1	135	0.00	29.933 
19:05	59.2	59.2	59.2	55	43.0	0	0	---	0.00	29.936 
19:10	58.9	58.9	58.9	56	43.2	0	0	---	0.00	29.936 
19:15	58.7	58.7	58.7	56	43.0	0	0	---	0.00	29.937 
19:20	58.6	58.6	58.6	56	43.0	0	0	---	0.00	29.937 
19:25	58.3	58.3	58.3	56	42.7	0	0	---	0.00	29.938 
19:30	58.1	58.1	58.1	57	42.9	0	0	---	0.00	29.939 
19:35	58.0	58.0	58.0	57	42.9	0	0	---	0.00	29.940 
19:40	57.6	57.6	57.6	58	42.9	0	0	---	0.00	29.942 
19:45	57.3	57.3	57.3	59	43.1	0	0	---	0.00	29.949 
19:50	56.9	56.9	56.9	60	43.2	0	0	---	0.00	29.951 
19:55	56.5	56.5	56.5	63	44.1	0	1	135	0.00	29.952 
20:00	56.0	56.0	56.0	65	44.4	0	0	---	0.00	29.954 
20:05	55.4	55.4	55.4	66	44.2	0	0	---	0.00	29.955 
20:10	54.8	54.8	54.8	67	44.1	0	0	---	0.00	29.958 
20:15	54.4	54.4	54.4	68	44.1	0	0	---	0.00	29.958 
20:20	54.1	54.1	54.1	69	44.2	0	0	---	0.00	29.960 
20:25	53.6	53.6	53.6	71	44.4	0	0	---	0.00	29.965 
20:30	53.5	53.5	53.5	73	45.1	0	0	---	0.00	29.969 
20:35	53.6	53.6	53.6	71	44.4	1	4	90	0.00	29.972 
20:40	54.5	54.5	54.5	69	44.5	1	4	90	0.00	29.976 
20:45	55.1	55.1	55.1	69	45.1	1	3	90	0.00	29.981 
20:50	55.1	55.1	55.1	69	45.1	1	4	90	0.00	29.981 
20:55	55.0	55.0	55.0	70	45.4	2	4	90	0.00	29.983 
21:00	54.7	54.7	54.7	72	45.9	1	2	90	0.00	29.985 
21:05	54.4	54.4	54.4	72	45.6	1	3	90	0.00	29.985 
21:10	54.1	54.1	54.1	73	45.6	0	2	112	0.00	29.989 
21:15	53.8	53.8	53.8	74	45.7	1	3	90	0.00	29.991 
21:20	53.5	53.5	53.5	75	45.8	0	4	90	0.00	29.994 
21:25	53.3	53.3	53.3	75	45.6	0	0	---	0.00	29.996 
21:30	53.1	53.1	53.1	76	45.7	0	1	90	0.00	30.000 
21:35	52.6	52.6	52.6	76	45.3	0	0	---	0.00	30.002 
21:40	52.3	52.3	52.3	77	45.3	0	0	---	0.00	30.004 
21:45	51.9	51.9	51.9	78	45.3	0	0	---	0.00	30.006 
21:50	51.6	51.6	51.6	79	45.3	0	0	---	0.00	30.006 
21:55	51.3	51.3	51.3	80	45.3	0	0	---	0.00	30.006 
22:00	51.0	51.0	51.0	81	45.4	0	0	---	0.00	30.007 
22:05	50.7	50.7	50.7	81	45.1	0	0	---	0.00	30.004 
22:10	50.5	50.5	50.5	82	45.2	0	0	---	0.00	30.004 
22:15	50.2	50.2	50.2	83	45.2	0	0	---	0.00	30.005 
22:20	50.1	50.1	50.1	84	45.5	0	0	---	0.00	30.006 
22:25	49.8	49.8	49.8	84	45.2	0	0	---	0.00	30.009 
22:30	49.6	49.6	49.6	85	45.3	0	0	---	0.00	30.011 
22:35	49.6	49.6	49.6	85	45.3	0	0	---	0.00	30.012 
22:40	49.5	49.5	49.5	86	45.5	0	0	---	0.00	30.014 
22:45	49.5	49.5	49.5	86	45.5	0	0	---	0.00	30.017 
22:50	49.5	49.5	49.5	87	45.8	0	0	---	0.00	30.019 
22:55	49.4	49.4	49.4	87	45.7	0	0	---	0.00	30.019 
23:00	49.4	49.4	49.4	87	45.7	0	0	---	0.00	30.019 
23:05	49.5	49.5	49.5	87	45.8	0	1	90	0.00	30.016 
23:10	49.6	49.6	49.6	87	45.9	0	1	90	0.00	30.016 
23:15	50.1	50.1	50.1	85	45.8	0	1	90	0.00	30.017 
23:20	50.5	50.5	50.5	83	45.5	0	2	90	0.00	30.017 
23:25	50.8	50.8	50.8	81	45.2	1	3	90	0.00	30.016 
23:30	51.1	51.1	51.1	81	45.5	1	2	90	0.00	30.016 
23:35	51.3	51.3	51.3	81	45.7	1	2	90	0.00	30.016 
23:40	51.3	51.3	51.3	80	45.3	1	4	90	0.00	30.016 
23:45	51.3	51.3	51.3	81	45.7	1	2	90	0.00	30.017 
23:50	51.3	51.3	51.3	81	45.7	1	4	90	0.00	30.022 
23:55	51.3	51.3	51.3	81	45.7	1	3	90	0.00	30.024 

CoCoRaHS
IN-AL-39
A2 Web Hosting
Creative Commons License
GoDaddy
Look for:

loaded 2017-10-17 09:40:03 • last modified 2010-11-18 10:43:29
Privacy PolicyDisclaimer
• wx.awcolley.com is powered by PmWiki v.2002016 •
• all content (unless otherwise noted) © 2017 A W Colley